Time;durP1;ratioP1;P1;durP2;ratioP2;P2;SDS_P1;SDS_P2;PMS_P1;PMS_P2;Temp;Humidity;BMP_temperature;BMP_pressure;BME280_temperature;BME280_humidity;BME280_pressure;Samples;Min_cycle;Max_cycle;Signal;HPM_P1;HPM_P2
2021/12/18 00:01:40;;;;;;;25.87;23.37;;;4.20;99.90;;;;;;5027877;28;20700;-75
2021/12/18 00:04:07;;;;;;;28.10;25.17;;;4.30;99.90;;;;;;5029043;28;20216;-75
2021/12/18 00:06:33;;;;;;;29.47;26.47;;;4.30;99.90;;;;;;5032549;28;20200;-76
2021/12/18 00:09:01;;;;;;;24.37;19.00;;;4.20;99.90;;;;;;5024848;28;20216;-76
2021/12/18 00:11:29;;;;;;;24.47;18.83;;;4.20;99.90;;;;;;5041134;28;20196;-75
2021/12/18 00:13:56;;;;;;;22.73;16.13;;;4.30;99.90;;;;;;5034087;28;20188;-76
2021/12/18 00:16:23;;;;;;;21.27;16.97;;;4.30;99.90;;;;;;5033595;28;20204;-76
2021/12/18 00:18:52;;;;;;;23.87;19.57;;;4.30;99.90;;;;;;5024274;28;20224;-75
2021/12/18 00:21:21;;;;;;;24.20;18.60;;;4.30;99.90;;;;;;5033802;28;20204;-75
2021/12/18 00:23:48;;;;;;;23.97;18.60;;;4.30;99.90;;;;;;5033721;28;20215;-75
2021/12/18 00:26:15;;;;;;;26.07;19.47;;;4.30;99.90;;;;;;5030039;28;20277;-75
2021/12/18 00:28:43;;;;;;;22.13;17.33;;;4.20;99.90;;;;;;5030245;28;20211;-75
2021/12/18 00:31:10;;;;;;;23.33;18.13;;;4.20;99.90;;;;;;5033830;28;20195;-75
2021/12/18 00:33:37;;;;;;;23.47;19.47;;;4.20;99.90;;;;;;5021871;28;20199;-75
2021/12/18 00:36:05;;;;;;;23.60;21.07;;;4.10;99.90;;;;;;5029934;28;20687;-76
2021/12/18 00:38:32;;;;;;;22.77;17.07;;;4.20;99.90;;;;;;5024239;28;20216;-75
2021/12/18 00:41:12;;;;;;;24.90;18.90;;;4.10;99.90;;;;;;5032615;28;20196;-75
2021/12/18 00:44:01;;;;;;;25.07;20.97;;;4.10;99.90;;;;;;5022261;28;20569;-75
2021/12/18 00:46:30;;;;;;;24.87;17.97;;;4.10;99.90;;;;;;5019413;28;20283;-75
2021/12/18 00:48:58;;;;;;;24.53;19.90;;;4.10;99.90;;;;;;5019971;28;20226;-75
2021/12/18 00:51:25;;;;;;;22.77;17.00;;;4.10;99.90;;;;;;5020849;28;20201;-74
2021/12/18 00:53:52;;;;;;;25.57;18.53;;;4.10;99.90;;;;;;5032152;28;20192;-75
2021/12/18 00:56:19;;;;;;;26.60;19.23;;;4.10;99.90;;;;;;5031768;28;20660;-75
2021/12/18 00:58:47;;;;;;;21.47;17.70;;;4.10;99.90;;;;;;5023564;28;20219;-75
2021/12/18 01:01:14;;;;;;;25.30;19.67;;;4.10;99.90;;;;;;5022148;28;20200;-75
2021/12/18 01:03:43;;;;;;;27.40;24.70;;;4.20;99.90;;;;;;5026305;28;20212;-75
2021/12/18 01:06:10;;;;;;;30.10;27.03;;;4.20;99.90;;;;;;5026936;28;20200;-75
2021/12/18 01:08:37;;;;;;;25.73;23.10;;;4.20;99.90;;;;;;5027033;28;20228;-75
2021/12/18 01:11:30;;;;;;;26.33;23.70;;;4.20;99.90;;;;;;5024466;28;20673;-75
2021/12/18 01:14:12;;;;;;;26.07;23.47;;;4.20;99.90;;;;;;5021256;28;20189;-75
2021/12/18 01:16:47;;;;;;;25.97;23.37;;;4.20;99.90;;;;;;5031441;28;20735;-75
2021/12/18 01:24:56;;;;;;;26.37;23.77;;;4.10;99.90;;;;;;4948395;28;20217;-75
2021/12/18 01:27:23;;;;;;;27.23;24.37;;;4.10;99.90;;;;;;5011351;28;20208;-75
2021/12/18 01:29:50;;;;;;;27.20;24.43;;;4.10;99.90;;;;;;5030963;28;20269;-75
2021/12/18 01:32:17;;;;;;;25.50;23.03;;;4.10;99.90;;;;;;5028656;28;20204;-76
2021/12/18 01:34:46;;;;;;;28.53;25.57;;;4.10;99.90;;;;;;5031135;28;20196;-75
2021/12/18 01:37:14;;;;;;;27.73;24.83;;;4.10;99.90;;;;;;5032403;28;20234;-74
2021/12/18 01:39:40;;;;;;;27.10;24.40;;;4.00;99.90;;;;;;5032244;28;20212;-75
2021/12/18 01:42:41;;;;;;;28.53;25.67;;;4.00;99.90;;;;;;5030848;28;20199;-75
2021/12/18 01:45:11;;;;;;;27.80;25.00;;;4.00;99.90;;;;;;5030933;28;20302;-76
2021/12/18 01:53:12;;;;;;;28.80;25.90;;;3.90;99.90;;;;;;5026514;28;20672;-75
2021/12/18 01:55:41;;;;;;;26.60;23.90;;;3.90;99.90;;;;;;5023766;28;20192;-75
2021/12/18 01:58:08;;;;;;;29.53;26.27;;;3.90;99.90;;;;;;5031551;28;20192;-75
2021/12/18 02:00:38;;;;;;;27.53;24.70;;;3.80;99.90;;;;;;5029863;28;20192;-75
2021/12/18 02:03:07;;;;;;;26.90;24.10;;;3.80;99.90;;;;;;5023684;28;20189;-75
2021/12/18 02:05:37;;;;;;;25.83;23.23;;;3.80;99.90;;;;;;5030521;28;20215;-75
2021/12/18 02:08:05;;;;;;;27.77;24.87;;;3.80;99.90;;;;;;5032038;28;20261;-75
2021/12/18 02:10:43;;;;;;;26.47;23.77;;;3.80;99.90;;;;;;5031156;28;20226;-75
2021/12/18 02:13:22;;;;;;;28.10;24.67;;;3.80;99.90;;;;;;5015667;28;20648;-76
2021/12/18 02:21:23;;;;;;;29.10;26.07;;;3.60;99.90;;;;;;5028462;28;20184;-75
2021/12/18 02:23:50;;;;;;;27.83;24.93;;;3.60;99.90;;;;;;5031464;28;20200;-75
2021/12/18 02:26:17;;;;;;;29.23;26.27;;;3.60;99.90;;;;;;5030100;28;20614;-75
2021/12/18 02:28:47;;;;;;;25.53;22.83;;;3.60;99.90;;;;;;5055364;22;20227;-79
2021/12/18 02:31:15;;;;;;;27.37;24.20;;;3.60;99.90;;;;;;5012555;28;20295;-79
2021/12/18 02:33:42;;;;;;;25.97;23.27;;;3.60;99.90;;;;;;5007590;28;20688;-80
2021/12/18 02:36:12;;;;;;;26.63;23.80;;;3.60;99.90;;;;;;5010722;28;20617;-80
2021/12/18 02:38:59;;;;;;;25.87;22.87;;;3.60;99.90;;;;;;5012407;28;20200;-80
2021/12/18 02:41:32;;;;;;;26.63;23.60;;;3.60;99.90;;;;;;5011177;28;20201;-81
2021/12/18 02:44:00;;;;;;;26.13;23.37;;;3.70;99.90;;;;;;5010287;28;20228;-79
2021/12/18 02:46:27;;;;;;;25.10;22.60;;;3.60;99.90;;;;;;5006277;28;20202;-79
2021/12/18 02:48:56;;;;;;;25.43;22.83;;;3.70;99.90;;;;;;5006131;28;20274;-80
2021/12/18 02:51:23;;;;;;;23.80;21.37;;;3.60;99.90;;;;;;5005751;28;20208;-79
2021/12/18 02:53:54;;;;;;;25.93;23.23;;;3.60;99.90;;;;;;5008512;28;20190;-79
2021/12/18 02:56:23;;;;;;;27.00;22.77;;;3.60;99.90;;;;;;5010413;28;20197;-79
2021/12/18 02:58:52;;;;;;;25.67;23.07;;;3.60;99.90;;;;;;5005902;28;20197;-79
2021/12/18 03:01:21;;;;;;;27.37;24.40;;;3.60;99.90;;;;;;5010885;28;20189;-79
2021/12/18 03:03:50;;;;;;;27.20;24.03;;;3.60;99.90;;;;;;5008841;28;20259;-79
2021/12/18 03:06:26;;;;;;;26.90;24.10;;;3.60;99.90;;;;;;5011158;28;20212;-81
2021/12/18 03:09:12;;;;;;;26.87;23.97;;;3.50;99.90;;;;;;5010856;28;20224;-81
2021/12/18 03:23:10;;;;;;;29.93;25.40;;;3.50;99.90;;;;;;4980507;28;20212;-79
2021/12/18 03:25:39;;;;;;;29.40;24.10;;;3.50;99.90;;;;;;5013342;28;20223;-79
2021/12/18 03:28:08;;;;;;;28.43;24.17;;;3.50;99.90;;;;;;5013920;28;20201;-80
2021/12/18 03:30:37;;;;;;;27.47;24.47;;;3.50;99.90;;;;;;5009132;28;20320;-79
2021/12/18 03:33:04;;;;;;;30.20;25.37;;;3.50;99.90;;;;;;5017271;28;20200;-79
2021/12/18 03:35:32;;;;;;;30.03;25.80;;;3.40;99.90;;;;;;5017876;28;20194;-80
2021/12/18 03:37:59;;;;;;;30.27;25.93;;;3.50;99.90;;;;;;5016836;28;20197;-80
2021/12/18 03:40:27;;;;;;;29.60;25.33;;;3.40;99.90;;;;;;5015629;28;20225;-79
2021/12/18 03:42:55;;;;;;;27.90;24.87;;;3.40;99.90;;;;;;5015036;28;20208;-81
2021/12/18 03:45:24;;;;;;;30.60;25.30;;;3.40;99.90;;;;;;5008333;28;21189;-79
2021/12/18 03:47:52;;;;;;;26.77;23.97;;;3.40;99.90;;;;;;5008601;28;20211;-78
2021/12/18 03:50:20;;;;;;;26.63;23.70;;;3.40;99.90;;;;;;5010905;28;20221;-79
2021/12/18 03:52:47;;;;;;;26.13;23.30;;;3.40;99.90;;;;;;5010525;28;20203;-80
2021/12/18 03:55:15;;;;;;;25.87;23.27;;;3.40;99.90;;;;;;5016800;28;20727;-79
2021/12/18 03:57:42;;;;;;;29.07;23.93;;;3.40;99.90;;;;;;5005048;28;20204;-80
2021/12/18 04:00:14;;;;;;;30.07;26.00;;;3.30;99.90;;;;;;5017956;28;20795;-78
2021/12/18 04:02:40;;;;;;;31.63;27.27;;;3.30;99.90;;;;;;5009877;28;20262;-79
2021/12/18 04:05:09;;;;;;;27.13;23.93;;;3.30;99.90;;;;;;5008014;28;20228;-80
2021/12/18 04:07:41;;;;;;;28.07;25.03;;;3.30;99.90;;;;;;5009890;28;20201;-80
2021/12/18 04:10:09;;;;;;;27.33;24.40;;;3.30;99.90;;;;;;5016381;28;20235;-79
2021/12/18 04:12:36;;;;;;;28.73;25.63;;;3.30;99.90;;;;;;5014768;28;20197;-79
2021/12/18 04:15:03;;;;;;;30.43;25.67;;;3.30;99.90;;;;;;5010282;28;20201;-79
2021/12/18 04:17:32;;;;;;;29.70;26.50;;;3.10;99.90;;;;;;5017602;28;20193;-79
2021/12/18 04:19:59;;;;;;;30.53;25.17;;;3.10;99.90;;;;;;5016644;28;20708;-79
2021/12/18 04:22:26;;;;;;;29.23;24.80;;;3.10;99.90;;;;;;5015392;28;20197;-79
2021/12/18 04:24:52;;;;;;;30.60;23.87;;;3.10;99.90;;;;;;5015186;28;20221;-79
2021/12/18 04:27:19;;;;;;;29.07;24.93;;;3.10;99.90;;;;;;5014328;28;20235;-78
2021/12/18 04:29:46;;;;;;;27.30;24.30;;;3.10;99.90;;;;;;5015648;28;20228;-78
2021/12/18 04:32:13;;;;;;;26.77;23.90;;;3.10;99.90;;;;;;5015855;28;20602;-79
2021/12/18 04:34:41;;;;;;;27.57;24.27;;;3.10;99.90;;;;;;5017686;28;20580;-79
2021/12/18 04:37:08;;;;;;;29.00;25.93;;;3.10;99.90;;;;;;5017165;28;20193;-79
2021/12/18 04:39:35;;;;;;;30.37;25.20;;;3.20;99.90;;;;;;5009574;28;20244;-79
2021/12/18 04:42:02;;;;;;;29.40;25.27;;;3.20;99.90;;;;;;5018429;28;20203;-79
2021/12/18 04:44:29;;;;;;;31.33;26.33;;;3.20;99.90;;;;;;5032003;28;20205;-79
2021/12/18 04:46:56;;;;;;;31.77;25.83;;;3.20;99.90;;;;;;5012104;28;20209;-79
2021/12/18 04:49:23;;;;;;;31.47;27.03;;;3.20;99.90;;;;;;5015383;28;20223;-78
2021/12/18 04:51:51;;;;;;;27.20;24.23;;;3.20;99.90;;;;;;5014890;28;20205;-78
2021/12/18 04:54:18;;;;;;;30.90;25.30;;;3.20;99.90;;;;;;5013967;28;20205;-78
2021/12/18 04:56:45;;;;;;;26.17;23.47;;;3.20;99.90;;;;;;5015881;28;20212;-79
2021/12/18 04:59:12;;;;;;;28.37;24.27;;;3.10;99.90;;;;;;5008897;28;20250;-77
2021/12/18 05:01:40;;;;;;;28.30;24.93;;;3.10;99.90;;;;;;5015586;28;20192;-78
2021/12/18 05:04:10;;;;;;;33.60;27.27;;;3.10;99.90;;;;;;5007017;28;20581;-78
2021/12/18 05:06:39;;;;;;;28.10;23.77;;;3.00;99.90;;;;;;5008758;28;20242;-77
2021/12/18 05:09:07;;;;;;;32.87;27.27;;;3.00;99.90;;;;;;5006951;28;20223;-79
2021/12/18 05:11:34;;;;;;;27.97;24.80;;;2.90;99.90;;;;;;5014209;28;20192;-78
2021/12/18 05:14:01;;;;;;;31.33;27.03;;;3.00;99.90;;;;;;5006745;28;20201;-81
2021/12/18 05:16:28;;;;;;;31.33;26.20;;;2.90;99.90;;;;;;5024348;28;20201;-78
2021/12/18 05:18:55;;;;;;;29.13;26.03;;;2.90;99.90;;;;;;5012448;28;20220;-79
2021/12/18 05:21:22;;;;;;;28.47;25.10;;;2.90;99.90;;;;;;5013380;28;20455;-81
2021/12/18 05:23:49;;;;;;;29.37;25.97;;;2.90;99.90;;;;;;5012434;28;20204;-80
2021/12/18 05:26:18;;;;;;;29.00;25.83;;;2.90;99.90;;;;;;5006826;28;20232;-78
2021/12/18 05:28:45;;;;;;;29.23;24.70;;;2.90;99.90;;;;;;5006390;28;20623;-79
2021/12/18 05:31:16;;;;;;;30.13;25.97;;;2.90;99.90;;;;;;5012183;28;20577;-80
2021/12/18 05:33:44;;;;;;;29.00;24.37;;;2.90;99.90;;;;;;5011102;28;20208;-79
2021/12/18 05:36:30;;;;;;;29.67;24.53;;;2.90;99.90;;;;;;5019776;28;20266;-81
2021/12/18 05:38:59;;;;;;;26.63;23.83;;;2.90;99.90;;;;;;5020444;28;20220;-81
2021/12/18 05:41:28;;;;;;;29.10;24.30;;;3.00;99.90;;;;;;5018309;28;20201;-79
2021/12/18 05:43:55;;;;;;;27.13;24.33;;;2.90;99.90;;;;;;5007011;28;20284;-79
2021/12/18 05:46:22;;;;;;;27.13;23.93;;;2.90;99.90;;;;;;5014277;28;20483;-80
2021/12/18 05:48:49;;;;;;;28.63;23.23;;;2.90;99.90;;;;;;5008142;28;20847;-81
2021/12/18 05:51:16;;;;;;;26.30;23.47;;;2.90;99.90;;;;;;5009693;28;20197;-82
2021/12/18 05:53:43;;;;;;;26.30;23.60;;;2.80;99.90;;;;;;5007757;28;20478;-79
2021/12/18 05:56:10;;;;;;;26.43;23.63;;;2.90;99.90;;;;;;5012767;28;20219;-80
2021/12/18 05:58:41;;;;;;;28.00;24.13;;;2.90;99.90;;;;;;5011757;28;20657;-80
2021/12/18 06:01:08;;;;;;;25.03;22.23;;;2.80;99.90;;;;;;5012478;28;20456;-80
2021/12/18 06:03:34;;;;;;;25.53;22.87;;;2.70;99.90;;;;;;5011099;28;20458;-80
2021/12/18 06:06:01;;;;;;;26.07;23.27;;;2.80;99.90;;;;;;5011027;28;20475;-81
2021/12/18 06:08:31;;;;;;;25.27;22.67;;;2.80;99.90;;;;;;5023309;28;21028;-82
2021/12/18 06:11:04;;;;;;;25.03;22.43;;;2.70;99.90;;;;;;5011887;28;20962;-81
2021/12/18 06:13:31;;;;;;;25.23;22.63;;;2.70;99.90;;;;;;5002293;28;20483;-82
2021/12/18 06:15:59;;;;;;;24.43;21.87;;;2.80;99.90;;;;;;5003302;28;20192;-82
2021/12/18 06:18:26;;;;;;;24.83;22.13;;;2.80;99.90;;;;;;5011371;28;20453;-81
2021/12/18 06:20:53;;;;;;;23.93;21.20;;;2.80;99.90;;;;;;5011800;28;20458;-81
2021/12/18 06:23:20;;;;;;;25.80;22.57;;;2.80;99.90;;;;;;5013521;28;20451;-82
2021/12/18 06:25:47;;;;;;;24.73;22.33;;;2.70;99.90;;;;;;5014866;28;20478;-80
2021/12/18 06:28:13;;;;;;;24.30;21.63;;;2.70;99.90;;;;;;5011852;28;20448;-81
2021/12/18 06:30:41;;;;;;;24.77;22.27;;;2.70;99.90;;;;;;5008696;28;20772;-81
2021/12/18 06:33:09;;;;;;;24.60;22.00;;;2.80;99.90;;;;;;5013844;28;20546;-81
2021/12/18 06:35:36;;;;;;;25.40;22.10;;;2.70;99.90;;;;;;5005915;28;20458;-82
2021/12/18 06:38:03;;;;;;;25.03;22.37;;;2.80;99.90;;;;;;5008610;28;20205;-81
2021/12/18 06:40:30;;;;;;;23.30;20.83;;;2.80;99.90;;;;;;5015108;28;20219;-81
2021/12/18 06:42:57;;;;;;;23.03;20.70;;;2.70;99.90;;;;;;5011092;28;21045;-82
2021/12/18 06:45:24;;;;;;;23.33;21.03;;;2.60;99.90;;;;;;5015256;28;20471;-81
2021/12/18 06:47:51;;;;;;;22.67;20.37;;;2.60;99.90;;;;;;5018212;28;20247;-81
2021/12/18 06:50:19;;;;;;;23.50;21.10;;;2.70;99.90;;;;;;5020130;28;20471;-81
2021/12/18 06:52:46;;;;;;;22.87;20.67;;;2.70;99.90;;;;;;5023897;28;20447;-81
2021/12/18 06:55:13;;;;;;;23.13;20.67;;;2.70;99.90;;;;;;5019989;28;20471;-82
2021/12/18 06:57:40;;;;;;;21.47;19.33;;;2.70;99.90;;;;;;5018383;28;20204;-81
2021/12/18 07:00:10;;;;;;;22.97;20.67;;;2.70;99.90;;;;;;5018743;28;20485;-81
2021/12/18 07:02:38;;;;;;;21.77;19.60;;;2.70;99.90;;;;;;5017070;28;20519;-81
2021/12/18 07:05:06;;;;;;;23.80;21.43;;;2.70;99.90;;;;;;5019916;28;20447;-81
2021/12/18 07:07:36;;;;;;;24.40;22.00;;;2.70;99.90;;;;;;5014287;28;20220;-81
2021/12/18 07:10:03;;;;;;;23.77;21.27;;;2.70;99.90;;;;;;5009338;28;20464;-82
2021/12/18 07:12:30;;;;;;;21.53;19.37;;;2.80;99.90;;;;;;5017673;28;20395;-81
2021/12/18 07:14:57;;;;;;;22.17;19.97;;;2.80;99.90;;;;;;5017904;28;20489;-82
2021/12/18 07:17:24;;;;;;;22.87;20.73;;;2.90;99.90;;;;;;5008676;28;20207;-82
2021/12/18 07:19:51;;;;;;;22.77;20.50;;;2.80;99.90;;;;;;5014243;28;20471;-81
2021/12/18 07:22:18;;;;;;;21.33;19.33;;;2.80;99.90;;;;;;5017701;28;20804;-78
2021/12/18 07:24:46;;;;;;;22.70;20.40;;;2.90;99.90;;;;;;5020323;28;20440;-78
2021/12/18 07:27:13;;;;;;;21.90;19.80;;;2.90;99.90;;;;;;5011975;28;20223;-78
2021/12/18 07:29:40;;;;;;;21.67;19.47;;;2.90;99.90;;;;;;5022598;28;21014;-80
2021/12/18 07:32:07;;;;;;;22.60;20.27;;;2.90;99.90;;;;;;5026160;28;20438;-80
2021/12/18 07:34:37;;;;;;;22.37;20.27;;;2.80;99.90;;;;;;5019820;28;20448;-80
2021/12/18 07:37:04;;;;;;;22.70;20.53;;;2.80;99.90;;;;;;5020820;28;20204;-80
2021/12/18 07:39:31;;;;;;;21.07;19.07;;;2.90;99.90;;;;;;5017168;28;20464;-81
2021/12/18 07:41:59;;;;;;;21.03;19.13;;;2.90;99.90;;;;;;5016524;28;20956;-80
2021/12/18 07:44:26;;;;;;;21.87;19.73;;;2.90;99.90;;;;;;5019150;28;20448;-80
2021/12/18 07:46:53;;;;;;;21.00;18.93;;;3.00;99.90;;;;;;5018498;28;20209;-80
2021/12/18 07:49:20;;;;;;;21.87;19.83;;;3.00;99.90;;;;;;5018359;28;20255;-81
2021/12/18 07:51:47;;;;;;;21.43;19.40;;;3.00;99.90;;;;;;5018026;28;20228;-81
2021/12/18 07:54:13;;;;;;;21.73;19.67;;;3.00;99.90;;;;;;5017755;28;20506;-81
2021/12/18 07:56:40;;;;;;;20.73;18.73;;;3.00;99.90;;;;;;5016070;28;20435;-80
2021/12/18 07:59:09;;;;;;;20.50;18.40;;;3.00;99.90;;;;;;5018153;28;20213;-80
2021/12/18 08:01:37;;;;;;;19.13;17.27;;;3.00;99.90;;;;;;5013739;28;20439;-81
2021/12/18 08:04:04;;;;;;;19.93;17.90;;;3.00;99.90;;;;;;5010608;28;20203;-79
2021/12/18 08:06:31;;;;;;;19.33;17.60;;;3.00;99.90;;;;;;5018328;28;20760;-80
2021/12/18 08:08:58;;;;;;;20.07;18.03;;;3.10;99.90;;;;;;5018075;28;20471;-80
2021/12/18 08:11:25;;;;;;;19.37;17.50;;;3.10;99.90;;;;;;5016465;28;20456;-82
2021/12/18 08:13:52;;;;;;;20.43;18.27;;;3.10;99.90;;;;;;5015697;28;20992;-81
2021/12/18 08:16:20;;;;;;;19.63;17.73;;;3.20;99.90;;;;;;5007915;28;20451;-81
2021/12/18 08:18:47;;;;;;;20.90;18.80;;;3.30;99.90;;;;;;5020447;28;20576;-81
2021/12/18 08:21:14;;;;;;;22.00;19.70;;;3.30;99.90;;;;;;5017302;28;20571;-82
2021/12/18 08:23:42;;;;;;;20.77;18.63;;;3.30;99.90;;;;;;5015800;28;20206;-80
2021/12/18 08:26:09;;;;;;;21.73;19.53;;;3.30;99.90;;;;;;5016692;28;20217;-82
2021/12/18 08:28:36;;;;;;;20.77;18.73;;;3.20;99.90;;;;;;5016398;28;20189;-81
2021/12/18 08:31:05;;;;;;;20.10;18.20;;;3.30;99.90;;;;;;5036793;22;20235;-77
2021/12/18 08:33:34;;;;;;;20.73;18.63;;;3.20;99.90;;;;;;5007032;28;20200;-77
2021/12/18 08:36:00;;;;;;;21.13;19.03;;;3.20;99.90;;;;;;5012455;28;20457;-77
2021/12/18 08:38:27;;;;;;;19.80;17.83;;;3.20;99.90;;;;;;5024074;28;20196;-77
2021/12/18 08:40:54;;;;;;;19.67;17.77;;;3.20;99.90;;;;;;5031403;28;20211;-77
2021/12/18 08:43:21;;;;;;;20.00;18.20;;;3.20;99.90;;;;;;5039858;28;20207;-78
2021/12/18 08:45:48;;;;;;;19.53;17.70;;;3.20;99.90;;;;;;5015536;28;20234;-78
2021/12/18 08:48:15;;;;;;;20.07;17.93;;;3.20;99.90;;;;;;5030557;28;20203;-77
2021/12/18 08:50:44;;;;;;;20.03;18.13;;;3.20;99.90;;;;;;5015896;28;20219;-77
2021/12/18 08:53:10;;;;;;;20.47;18.47;;;3.20;99.90;;;;;;5031158;28;20474;-77
2021/12/18 08:55:38;;;;;;;21.30;19.00;;;3.20;99.90;;;;;;5031826;28;20582;-77
2021/12/18 08:58:08;;;;;;;20.77;18.57;;;3.20;99.90;;;;;;5031976;28;20204;-77
2021/12/18 09:00:35;;;;;;;20.10;18.10;;;3.10;99.90;;;;;;5032519;28;20219;-77
2021/12/18 09:03:01;;;;;;;20.43;18.43;;;3.10;99.90;;;;;;5029101;28;20196;-77
2021/12/18 09:05:30;;;;;;;19.73;17.83;;;3.20;99.90;;;;;;5014565;28;20218;-77
2021/12/18 09:07:58;;;;;;;20.80;18.70;;;3.30;99.90;;;;;;5027731;28;20474;-78
2021/12/18 09:10:25;;;;;;;20.53;18.43;;;3.40;99.90;;;;;;5025316;28;20223;-77
2021/12/18 09:12:53;;;;;;;19.53;17.63;;;3.50;99.90;;;;;;5009098;28;20206;-77
2021/12/18 09:15:20;;;;;;;20.77;18.57;;;3.40;99.90;;;;;;5007711;28;20370;-76
2021/12/18 09:17:47;;;;;;;19.83;17.93;;;3.50;99.90;;;;;;5028966;28;20196;-77
2021/12/18 09:20:15;;;;;;;19.90;17.93;;;3.50;99.90;;;;;;5031433;28;20231;-78
2021/12/18 09:22:42;;;;;;;19.67;17.77;;;3.50;99.90;;;;;;5028229;28;20675;-77
2021/12/18 09:25:11;;;;;;;19.27;17.37;;;3.40;99.90;;;;;;5021352;28;20196;-77
2021/12/18 09:27:39;;;;;;;18.67;16.70;;;3.40;99.90;;;;;;5024304;28;20220;-77
2021/12/18 09:30:10;;;;;;;20.00;17.97;;;3.50;99.90;;;;;;5030340;28;20220;-77
2021/12/18 09:32:37;;;;;;;19.07;17.07;;;3.60;99.90;;;;;;5013219;28;20203;-77
2021/12/18 09:35:05;;;;;;;19.00;17.20;;;3.50;99.90;;;;;;5012629;28;20442;-77
2021/12/18 09:37:31;;;;;;;18.87;17.07;;;3.60;99.90;;;;;;5029641;28;20202;-77
2021/12/18 09:39:58;;;;;;;19.33;17.53;;;3.60;99.90;;;;;;5013269;28;20220;-77
2021/12/18 09:42:27;;;;;;;18.43;16.73;;;3.60;99.90;;;;;;5023368;28;20192;-77
2021/12/18 09:44:54;;;;;;;19.47;17.57;;;3.70;99.90;;;;;;5031196;28;20192;-77
2021/12/18 09:47:21;;;;;;;18.47;16.70;;;3.70;99.90;;;;;;5032007;28;20220;-77
2021/12/18 09:49:49;;;;;;;18.47;16.67;;;3.70;99.90;;;;;;5031543;28;20212;-77
2021/12/18 09:52:16;;;;;;;19.40;17.53;;;3.70;99.90;;;;;;5023905;28;20207;-77
2021/12/18 09:54:43;;;;;;;18.67;16.80;;;3.70;99.90;;;;;;5018275;28;20656;-78
2021/12/18 09:57:10;;;;;;;19.47;17.57;;;3.70;99.90;;;;;;5011100;28;20192;-78
2021/12/18 09:59:38;;;;;;;18.87;17.07;;;3.70;99.90;;;;;;5011518;28;20220;-77
2021/12/18 10:02:06;;;;;;;18.77;16.87;;;3.70;99.90;;;;;;5012921;28;20211;-77
2021/12/18 10:04:35;;;;;;;18.23;16.57;;;3.80;99.90;;;;;;5030671;28;20542;-78
2021/12/18 10:07:15;;;;;;;19.07;17.17;;;3.70;99.90;;;;;;5023083;28;20240;-79
2021/12/18 10:09:43;;;;;;;18.90;17.03;;;3.70;99.90;;;;;;5013234;28;20219;-82
2021/12/18 10:12:16;;;;;;;18.07;16.27;;;3.80;99.90;;;;;;5008036;28;20204;-78
2021/12/18 10:14:47;;;;;;;17.97;16.33;;;3.80;99.90;;;;;;5022173;28;20204;-76
2021/12/18 10:17:26;;;;;;;19.80;17.80;;;4.00;99.90;;;;;;5015043;28;20200;-78
2021/12/18 10:19:55;;;;;;;17.70;16.00;;;4.00;99.90;;;;;;5028377;28;20226;-77
2021/12/18 10:22:22;;;;;;;17.47;15.83;;;4.10;99.90;;;;;;5029088;28;20199;-79
2021/12/18 10:25:04;;;;;;;18.40;16.60;;;4.10;99.90;;;;;;5007026;28;20200;-78
2021/12/18 10:27:31;;;;;;;18.70;16.90;;;4.10;99.90;;;;;;5010950;28;20704;-80
2021/12/18 10:30:12;;;;;;;18.63;16.70;;;4.10;99.90;;;;;;5027758;28;20227;-77
2021/12/18 10:32:39;;;;;;;17.93;16.03;;;4.10;99.90;;;;;;5011970;28;20203;-77
2021/12/18 10:35:07;;;;;;;18.90;17.17;;;4.10;99.90;;;;;;5029254;28;20196;-77
2021/12/18 10:37:35;;;;;;;19.17;17.27;;;4.10;99.90;;;;;;5026701;28;20204;-77
2021/12/18 10:40:07;;;;;;;18.10;16.40;;;4.10;99.90;;;;;;5013241;28;20269;-77
2021/12/18 10:42:36;;;;;;;18.33;16.67;;;4.30;99.90;;;;;;5021681;28;20206;-77
2021/12/18 10:45:11;;;;;;;17.07;15.60;;;4.40;99.90;;;;;;5029143;28;20341;-77
2021/12/18 10:47:53;;;;;;;18.30;16.60;;;4.40;99.90;;;;;;5036139;28;20208;-77
2021/12/18 10:50:28;;;;;;;18.13;16.53;;;4.50;99.90;;;;;;5003401;28;20224;-77
2021/12/18 10:53:00;;;;;;;19.00;16.77;;;4.50;99.90;;;;;;5007289;28;20227;-77
2021/12/18 10:55:37;;;;;;;19.00;17.20;;;4.50;99.90;;;;;;5006965;28;20683;-77
2021/12/18 10:58:06;;;;;;;17.30;15.70;;;4.60;99.90;;;;;;5027380;28;20203;-76
2021/12/18 11:00:42;;;;;;;17.83;16.13;;;4.50;99.90;;;;;;5005822;28;20230;-77
2021/12/18 11:03:33;;;;;;;18.30;16.50;;;4.50;99.90;;;;;;5030309;28;20195;-77
2021/12/18 11:06:22;;;;;;;19.27;17.47;;;4.50;99.90;;;;;;5025718;28;20238;-77
2021/12/18 11:09:04;;;;;;;18.33;16.80;;;4.50;99.90;;;;;;5021204;28;20618;-77
2021/12/18 11:14:23;;;;;;;19.07;17.27;;;4.70;99.90;;;;;;5028173;28;20199;-77
2021/12/18 11:16:54;;;;;;;17.23;15.73;;;4.70;99.90;;;;;;5019178;28;20666;-77
2021/12/18 11:19:23;;;;;;;18.23;16.63;;;4.60;99.90;;;;;;5023496;28;20199;-77
2021/12/18 11:21:52;;;;;;;18.53;16.83;;;4.60;99.90;;;;;;5025805;28;20402;-77
2021/12/18 11:24:21;;;;;;;17.10;15.60;;;4.70;99.90;;;;;;5012929;28;20196;-77
2021/12/18 11:26:56;;;;;;;16.67;15.27;;;4.80;99.90;;;;;;5023624;28;20228;-76
2021/12/18 11:29:27;;;;;;;17.20;15.50;;;4.80;99.90;;;;;;5010762;28;20228;-77
2021/12/18 11:31:55;;;;;;;17.63;16.03;;;5.10;99.90;;;;;;5030465;28;20564;-77
2021/12/18 11:34:23;;;;;;;17.87;16.27;;;5.00;99.90;;;;;;5013487;28;20836;-77
2021/12/18 11:36:52;;;;;;;16.90;15.50;;;5.10;99.90;;;;;;5041099;28;20273;-77
2021/12/18 11:39:23;;;;;;;18.03;16.43;;;5.20;99.90;;;;;;5015286;28;20211;-77
2021/12/18 11:41:53;;;;;;;17.90;16.33;;;5.30;99.90;;;;;;5034116;28;20193;-77
2021/12/18 11:44:25;;;;;;;17.47;16.07;;;5.40;99.90;;;;;;5016434;28;20207;-77
2021/12/18 11:46:53;;;;;;;17.03;15.53;;;5.40;99.90;;;;;;5033870;28;20681;-77
2021/12/18 11:49:25;;;;;;;16.20;14.90;;;5.30;99.90;;;;;;5034130;28;20203;-77
2021/12/18 11:52:00;;;;;;;16.93;15.53;;;5.30;99.90;;;;;;5038343;28;20196;-77
2021/12/18 11:54:42;;;;;;;18.70;17.00;;;5.30;99.90;;;;;;5027515;28;20220;-77
2021/12/18 11:57:09;;;;;;;18.07;16.57;;;5.20;99.90;;;;;;5015036;28;20203;-77
2021/12/18 11:59:38;;;;;;;16.57;15.27;;;5.00;99.90;;;;;;5035627;28;20225;-77
2021/12/18 12:02:06;;;;;;;16.80;15.20;;;5.00;99.90;;;;;;5013500;28;20212;-77
2021/12/18 12:04:59;;;;;;;16.60;15.20;;;4.90;99.90;;;;;;5032430;28;20200;-77
2021/12/18 12:07:27;;;;;;;16.93;15.33;;;4.80;99.90;;;;;;5033061;28;20771;-77
2021/12/18 12:10:21;;;;;;;17.47;15.87;;;4.90;99.90;;;;;;5032194;28;20731;-77
2021/12/18 12:12:54;;;;;;;17.00;15.40;;;4.90;99.90;;;;;;5013047;28;20196;-77
2021/12/18 12:15:24;;;;;;;17.53;16.00;;;4.80;99.90;;;;;;5015893;28;20202;-77
2021/12/18 12:17:56;;;;;;;17.07;15.37;;;4.70;99.90;;;;;;5041527;28;20192;-77
2021/12/18 12:20:37;;;;;;;16.37;14.87;;;4.80;99.90;;;;;;5033567;28;20227;-77
2021/12/18 12:23:05;;;;;;;17.67;16.07;;;4.80;99.90;;;;;;5030420;28;20196;-77
2021/12/18 12:25:38;;;;;;;15.97;14.63;;;4.80;99.90;;;;;;5032519;28;20207;-77
2021/12/18 12:28:08;;;;;;;16.57;15.17;;;4.80;99.90;;;;;;5028779;28;20211;-76
2021/12/18 12:30:43;;;;;;;17.50;15.80;;;4.70;99.90;;;;;;5028809;28;20224;-77
2021/12/18 12:33:13;;;;;;;16.87;15.37;;;4.70;99.90;;;;;;5030146;28;20199;-77
2021/12/18 12:36:12;;;;;;;17.70;16.20;;;4.70;99.90;;;;;;5032314;28;20203;-77
2021/12/18 12:38:43;;;;;;;18.60;17.00;;;4.60;99.90;;;;;;4984848;28;20219;-77
2021/12/18 12:41:42;;;;;;;18.27;16.67;;;4.50;99.90;;;;;;5014331;28;20216;-77
2021/12/18 12:44:18;;;;;;;18.47;16.80;;;4.50;99.90;;;;;;5027910;28;20202;-77
2021/12/18 12:46:45;;;;;;;18.70;16.70;;;4.40;99.90;;;;;;5011522;28;20290;-77
2021/12/18 12:49:18;;;;;;;18.30;16.50;;;4.40;99.90;;;;;;5031161;28;20206;-77
2021/12/18 12:52:09;;;;;;;17.70;16.00;;;4.50;99.90;;;;;;5037392;28;20192;-77
2021/12/18 12:54:55;;;;;;;17.63;15.97;;;4.40;99.90;;;;;;5020945;28;20208;-77
2021/12/18 12:57:37;;;;;;;17.23;15.63;;;4.40;99.90;;;;;;5015162;28;20199;-77
2021/12/18 13:00:39;;;;;;;17.03;15.33;;;4.40;99.90;;;;;;5022930;28;20231;-76
2021/12/18 13:03:16;;;;;;;17.27;15.57;;;4.50;99.90;;;;;;5031220;28;20199;-76
2021/12/18 13:05:55;;;;;;;17.97;16.23;;;4.40;99.90;;;;;;5031998;28;20645;-76
2021/12/18 13:08:24;;;;;;;17.23;15.53;;;4.50;99.90;;;;;;5013533;28;20223;-76
2021/12/18 13:10:54;;;;;;;18.00;16.40;;;4.40;99.90;;;;;;5032343;28;20211;-76
2021/12/18 13:13:23;;;;;;;18.30;16.60;;;4.50;99.90;;;;;;5031432;28;20745;-76
2021/12/18 13:15:53;;;;;;;18.57;16.87;;;4.40;99.90;;;;;;5018899;28;20207;-75
2021/12/18 13:18:22;;;;;;;18.57;16.97;;;4.40;99.90;;;;;;5011193;28;20196;-76
2021/12/18 13:20:55;;;;;;;19.20;17.30;;;4.40;99.90;;;;;;5028377;28;20215;-76